createdAt,value
2018-09-19T00:07:44.328Z,19.2
2018-09-19T00:23:15.919Z,19
2018-09-19T00:38:34.897Z,18.9
2018-09-19T00:53:52.347Z,18.8
2018-09-19T01:09:10.049Z,18.7
2018-09-19T01:24:19.491Z,18.7
2018-09-19T01:39:45.686Z,18.6
2018-09-19T01:55:03.295Z,18.6
2018-09-19T02:10:21.236Z,18.5
2018-09-19T02:25:38.780Z,18.4
2018-09-19T02:40:54.824Z,18.3
2018-09-19T02:56:14.719Z,18.1
2018-09-19T03:11:32.569Z,18.1
2018-09-19T03:26:49.198Z,18
2018-09-19T03:41:57.686Z,17.9
2018-09-19T03:57:24.095Z,17.8
2018-09-19T04:12:41.575Z,17.7
2018-09-19T04:27:58.834Z,17.6
2018-09-19T04:43:02.082Z,17.6
2018-09-19T04:58:31.661Z,17.5
2018-09-19T05:13:50.981Z,17.6
2018-09-19T05:29:08.159Z,17.7
2018-09-19T05:44:25.661Z,17.8
2018-09-19T05:59:34.736Z,17.9
2018-09-19T06:15:00.662Z,18.1
2018-09-19T06:30:18.181Z,18.3
2018-09-19T06:45:36.134Z,18.8
2018-09-19T07:00:45.850Z,19.1
2018-09-19T07:16:12.233Z,19.6
2018-09-19T07:31:30.434Z,20
2018-09-19T07:46:48.924Z,20.4
2018-09-19T08:01:53.967Z,20.8
2018-09-19T08:17:26.581Z,21.1
2018-09-19T08:32:46.132Z,21.4
2018-09-19T08:48:04.857Z,21.8
2018-09-19T09:03:25.925Z,22.5
2018-09-19T09:18:37.748Z,22.6
2018-09-19T09:34:03.433Z,23.4
2018-09-19T09:49:23.738Z,24.2
2018-09-19T10:04:44.449Z,25.2
2018-09-19T10:19:50.374Z,25.3
2018-09-19T10:35:24.415Z,25.8
2018-09-19T10:50:49.454Z,26.3
2018-09-19T11:06:12.828Z,26.8
2018-09-19T11:21:36.290Z,27.1
2018-09-19T11:36:40.643Z,27.6
2018-09-19T11:52:15.937Z,28
2018-09-19T12:07:50.754Z,28.5
2018-09-19T12:23:16.557Z,28.8
2018-09-19T12:38:42.678Z,29.2
2018-09-19T12:54:08.924Z,29.6
2018-09-19T13:09:12.147Z,29.9
2018-09-19T13:24:48.378Z,30.2
2018-09-19T13:40:24.526Z,30.2
2018-09-19T13:55:58.044Z,30.5
2018-09-19T14:11:25.477Z,30.5
2018-09-19T14:26:53.744Z,30.4
2018-09-19T14:42:20.857Z,30.5
2018-09-19T14:57:23.480Z,30.3
2018-09-19T15:13:00.118Z,30.3
2018-09-19T15:28:36.229Z,30
2018-09-19T15:44:09.794Z,29.9
2018-09-19T15:59:35.884Z,29.9
2018-09-19T16:15:01.819Z,30
2018-09-19T16:30:27.003Z,29.2
2018-09-19T16:45:32.508Z,28.4
2018-09-19T17:01:07.271Z,27.8
2018-09-19T17:16:39.077Z,27.2
2018-09-19T17:32:01.030Z,26.7
2018-09-19T17:47:22.807Z,26.1
2018-09-19T18:02:45.153Z,25.7
2018-09-19T18:17:55.888Z,25.2
2018-09-19T18:33:27.304Z,24.9
2018-09-19T18:48:47.955Z,24.5
2018-09-19T19:04:08.522Z,24.2
2018-09-19T19:19:29.007Z,23.8
2018-09-19T19:34:40.388Z,23.6
2018-09-19T19:50:09.665Z,23.4
2018-09-19T20:05:28.787Z,23
2018-09-19T20:20:48.535Z,22.7
2018-09-19T20:36:08.126Z,22.5
2018-09-19T20:51:22.757Z,22.2
2018-09-19T21:06:46.280Z,22
2018-09-19T21:22:06.371Z,21.8
2018-09-19T21:37:24.872Z,21.5
2018-09-19T21:52:29.374Z,21.4
2018-09-19T22:08:01.359Z,21.1
2018-09-19T22:23:22.207Z,20.8
2018-09-19T22:38:40.635Z,20.6
2018-09-19T22:54:01.392Z,20.4
2018-09-19T23:09:10.167Z,20.2
2018-09-19T23:24:35.667Z,20
2018-09-19T23:39:54.175Z,19.8
2018-09-19T23:55:12.681Z,20.3
